Time;durP1;ratioP1;P1;durP2;ratioP2;P2;SDS_P1;SDS_P2;PMS_P1;PMS_P2;Temp;Humidity;BMP_temperature;BMP_pressure;BME280_temperature;BME280_humidity;BME280_pressure;Samples;Min_cycle;Max_cycle;Signal;HPM_P1;HPM_P2
2022/07/03 00:02:24;;;;;;;1.10;0.93;;;;;;;16.50;100.00;96122.97;5011438;28;24489;-73
2022/07/03 00:04:51;;;;;;;1.40;0.95;;;;;;;16.46;100.00;96126.75;5004892;28;24467;-73
2022/07/03 00:07:18;;;;;;;3.78;1.38;;;;;;;16.44;100.00;96123.44;5011119;28;24506;-73
2022/07/03 00:09:45;;;;;;;0.80;0.80;;;;;;;16.44;100.00;96128.69;5011429;28;24447;-73
2022/07/03 00:12:12;;;;;;;1.33;0.90;;;;;;;16.42;100.00;96126.16;5011362;28;24448;-73
2022/07/03 00:14:38;;;;;;;2.75;0.95;;;;;;;16.42;100.00;96130.56;5011200;28;24435;-73
2022/07/03 00:17:05;;;;;;;2.60;1.00;;;;;;;16.43;100.00;96124.41;5009610;28;24436;-73
2022/07/03 00:19:31;;;;;;;1.50;1.10;;;;;;;16.39;100.00;96126.44;5011248;28;24436;-73
2022/07/03 00:22:03;;;;;;;1.70;1.00;;;;;;;16.35;100.00;96124.16;5003354;28;24520;-74
2022/07/03 00:24:38;;;;;;;2.25;1.17;;;;;;;16.29;100.00;96122.88;5005217;28;24451;-74
2022/07/03 00:27:08;;;;;;;1.10;0.80;;;;;;;16.28;100.00;96121.25;5001702;28;24490;-74
2022/07/03 00:29:38;;;;;;;3.30;1.90;;;;;;;16.20;100.00;96123.59;5010841;28;24448;-77
2022/07/03 00:32:08;;;;;;;2.45;1.77;;;;;;;16.10;99.35;96125.31;5051675;23;24460;-78
2022/07/03 00:34:36;;;;;;;3.85;1.85;;;;;;;15.93;100.00;96124.84;4998852;28;24433;-78
2022/07/03 00:37:03;;;;;;;2.40;1.60;;;;;;;15.84;100.00;96122.13;5015254;28;24437;-78
2022/07/03 00:39:31;;;;;;;3.03;1.27;;;;;;;15.80;100.00;96121.56;5011410;28;24444;-77
2022/07/03 00:42:02;;;;;;;3.22;1.98;;;;;;;15.88;100.00;96120.94;4995327;28;24459;-78
2022/07/03 00:44:30;;;;;;;3.30;1.67;;;;;;;15.72;100.00;96122.16;4991103;28;24585;-78
2022/07/03 00:46:57;;;;;;;1.63;1.38;;;;;;;15.64;100.00;96127.06;4991946;28;24437;-78
2022/07/03 00:49:24;;;;;;;1.83;1.58;;;;;;;15.62;100.00;96129.00;4992245;28;24437;-78
2022/07/03 00:51:52;;;;;;;1.63;1.25;;;;;;;15.61;100.00;96118.66;4992223;28;24465;-78
2022/07/03 00:54:22;;;;;;;2.70;1.60;;;;;;;15.62;100.00;96113.31;4992175;28;24519;-78
2022/07/03 00:56:52;;;;;;;2.28;1.58;;;;;;;15.65;100.00;96120.09;4992713;28;24436;-78
2022/07/03 00:59:19;;;;;;;2.23;1.57;;;;;;;15.52;100.00;96119.38;4993666;28;24460;-78
2022/07/03 01:01:46;;;;;;;1.45;1.10;;;;;;;15.47;100.00;96117.94;5001832;28;24445;-78
2022/07/03 01:04:23;;;;;;;2.97;1.50;;;;;;;15.48;100.00;96124.81;4985102;28;24460;-78
2022/07/03 01:06:54;;;;;;;2.90;1.30;;;;;;;15.48;100.00;96124.00;4993784;28;24479;-78
2022/07/03 01:09:35;;;;;;;2.57;1.47;;;;;;;15.48;100.00;96116.16;4991607;28;24495;-78
2022/07/03 01:12:08;;;;;;;3.27;1.70;;;;;;;15.39;100.00;96120.31;4993054;28;24437;-78
2022/07/03 01:14:44;;;;;;;3.30;1.88;;;;;;;15.21;100.00;96119.94;4993440;28;24464;-78
2022/07/03 01:17:20;;;;;;;3.65;1.88;;;;;;;15.01;100.00;96116.19;4991236;28;24433;-78
2022/07/03 01:19:49;;;;;;;5.88;1.83;;;;;;;14.97;100.00;96124.38;4986373;28;24949;-78
2022/07/03 01:22:28;;;;;;;2.05;1.35;;;;;;;14.97;100.00;96125.22;4993071;28;25024;-78
2022/07/03 01:25:12;;;;;;;3.92;1.52;;;;;;;15.05;100.00;96119.41;4993403;28;24452;-78
2022/07/03 01:27:54;;;;;;;2.28;1.17;;;;;;;15.09;100.00;96126.09;4997335;28;24433;-78
2022/07/03 01:30:23;;;;;;;2.53;1.50;;;;;;;15.17;100.00;96126.34;4986865;28;24800;-78
2022/07/03 01:32:58;;;;;;;2.58;1.00;;;;;;;15.18;100.00;96122.78;4987715;28;24408;-78
2022/07/03 01:35:29;;;;;;;2.15;1.10;;;;;;;15.25;100.00;96120.53;4994506;28;24432;-78
2022/07/03 01:37:57;;;;;;;3.92;1.20;;;;;;;15.19;100.00;96128.81;4995870;28;24441;-78
2022/07/03 01:40:25;;;;;;;2.57;1.37;;;;;;;15.05;100.00;96116.81;4997540;28;24456;-77
2022/07/03 01:42:55;;;;;;;1.40;1.30;;;;;;;14.96;100.00;96122.72;4993017;28;24450;-77
2022/07/03 01:45:24;;;;;;;3.80;1.35;;;;;;;14.90;100.00;96118.78;4992234;28;24464;-77
2022/07/03 01:47:52;;;;;;;1.98;1.10;;;;;;;14.91;100.00;96114.44;4992687;28;24437;-78
2022/07/03 01:50:22;;;;;;;1.50;1.38;;;;;;;15.06;100.00;96112.44;4985129;28;24437;-77
2022/07/03 01:52:50;;;;;;;3.80;1.70;;;;;;;14.82;100.00;96112.47;4993883;28;24460;-77
2022/07/03 01:55:19;;;;;;;4.95;1.70;;;;;;;14.73;100.00;96112.22;4994802;28;24433;-77
2022/07/03 01:57:47;;;;;;;2.40;1.73;;;;;;;14.81;100.00;96116.88;4988907;28;24823;-78
2022/07/03 02:00:18;;;;;;;7.30;1.95;;;;;;;14.82;100.00;96115.09;4988282;28;25070;-78
2022/07/03 02:02:53;;;;;;;2.33;1.63;;;;;;;14.66;100.00;96118.00;4994607;28;24441;-78
2022/07/03 02:05:29;;;;;;;2.78;2.00;;;;;;;14.61;100.00;96112.28;4997077;28;24473;-78
2022/07/03 02:08:03;;;;;;;3.30;2.10;;;;;;;14.56;100.00;96107.41;4997732;28;24432;-78
2022/07/03 02:10:34;;;;;;;6.30;1.67;;;;;;;14.45;100.00;96107.34;4998515;28;24452;-78
2022/07/03 02:13:03;;;;;;;6.03;1.92;;;;;;;14.40;100.00;96107.69;4992731;28;24453;-77
2022/07/03 02:15:33;;;;;;;3.22;1.70;;;;;;;14.36;100.00;96110.63;4989165;28;24513;-78
2022/07/03 02:18:06;;;;;;;1.73;1.52;;;;;;;14.39;100.00;96111.22;4981047;28;24438;-78
2022/07/03 02:20:40;;;;;;;1.45;1.13;;;;;;;14.43;100.00;96099.63;4992880;28;24444;-78
2022/07/03 02:23:09;;;;;;;1.10;1.00;;;;;;;14.49;100.00;96108.78;4992708;28;24440;-78
2022/07/03 02:25:37;;;;;;;1.92;1.02;;;;;;;14.58;100.00;96105.53;4992256;28;24453;-78
2022/07/03 02:28:06;;;;;;;1.42;1.20;;;;;;;14.65;100.00;96093.72;4991388;28;24432;-78
2022/07/03 02:30:40;;;;;;;2.08;1.10;;;;;;;14.64;100.00;96099.03;4992738;28;24463;-77
2022/07/03 02:33:11;;;;;;;1.60;1.13;;;;;;;14.70;100.00;96098.59;4995837;28;24452;-78
2022/07/03 02:35:37;;;;;;;1.48;1.23;;;;;;;14.68;100.00;96103.06;4992152;28;24445;-77
2022/07/03 02:38:09;;;;;;;1.50;1.00;;;;;;;14.66;100.00;96111.00;4995940;28;24495;-78
2022/07/03 02:40:40;;;;;;;2.85;1.10;;;;;;;14.64;100.00;96112.88;5010455;28;24495;-78
2022/07/03 02:43:16;;;;;;;1.27;1.05;;;;;;;14.67;100.00;96107.44;4989972;28;24441;-78
2022/07/03 02:45:54;;;;;;;2.40;1.20;;;;;;;14.72;100.00;96109.72;4997405;28;24449;-78
2022/07/03 02:48:27;;;;;;;1.80;1.00;;;;;;;14.67;100.00;96122.25;4999620;28;24437;-78
2022/07/03 02:50:59;;;;;;;1.45;1.13;;;;;;;14.66;100.00;96120.63;5006367;28;24448;-78
2022/07/03 02:53:31;;;;;;;1.38;1.10;;;;;;;14.60;100.00;96118.44;5000329;28;24444;-78
2022/07/03 02:56:08;;;;;;;3.42;1.23;;;;;;;14.59;100.00;96116.78;4996897;28;24440;-79
2022/07/03 02:58:50;;;;;;;3.80;1.10;;;;;;;14.58;100.00;96121.19;4993094;28;24452;-79
2022/07/03 03:01:30;;;;;;;2.75;1.35;;;;;;;14.54;100.00;96124.97;4996105;28;24445;-79
2022/07/03 03:04:08;;;;;;;2.30;1.00;;;;;;;14.45;100.00;96118.59;4982232;28;24495;-79
2022/07/03 03:06:37;;;;;;;2.58;1.30;;;;;;;14.48;100.00;96120.16;4992277;28;24837;-79
2022/07/03 03:09:05;;;;;;;1.50;1.23;;;;;;;14.31;100.00;96125.72;4995494;28;24433;-79
2022/07/03 03:11:41;;;;;;;1.80;1.40;;;;;;;14.20;100.00;96119.53;4984762;28;24456;-78
2022/07/03 03:14:11;;;;;;;1.90;1.30;;;;;;;14.19;100.00;96122.25;4991524;28;24436;-79
2022/07/03 03:16:46;;;;;;;2.40;1.23;;;;;;;14.34;100.00;96125.53;4991888;28;24445;-79
2022/07/03 03:19:13;;;;;;;1.33;1.20;;;;;;;14.27;100.00;96130.34;4976098;28;24421;-79
2022/07/03 03:21:50;;;;;;;2.43;1.80;;;;;;;14.19;100.00;96130.06;4975180;28;24445;-79
2022/07/03 03:24:19;;;;;;;1.90;1.20;;;;;;;14.17;100.00;96130.19;4991774;28;24429;-78
2022/07/03 03:26:46;;;;;;;3.10;1.23;;;;;;;14.11;100.00;96129.78;4994443;28;24436;-79
2022/07/03 03:29:12;;;;;;;1.77;1.10;;;;;;;14.17;100.00;96134.56;4988038;28;24436;-79
2022/07/03 03:31:40;;;;;;;1.33;1.02;;;;;;;14.20;100.00;96137.78;4990455;28;24460;-78
2022/07/03 03:34:08;;;;;;;1.55;1.10;;;;;;;14.17;100.00;96132.78;4998917;28;24444;-79
2022/07/03 03:36:35;;;;;;;1.00;0.90;;;;;;;14.18;100.00;96139.66;4994444;28;24819;-79
2022/07/03 03:39:02;;;;;;;2.03;1.25;;;;;;;14.18;100.00;96142.25;4994530;28;25009;-78
2022/07/03 03:41:29;;;;;;;1.23;0.98;;;;;;;14.22;100.00;96141.09;4994075;28;24950;-78
2022/07/03 03:43:55;;;;;;;2.05;1.25;;;;;;;14.22;100.00;96148.06;4994894;28;24441;-79
2022/07/03 03:46:22;;;;;;;1.35;1.10;;;;;;;14.21;100.00;96139.44;4994165;28;24843;-78
2022/07/03 03:48:49;;;;;;;1.30;1.20;;;;;;;14.20;100.00;96145.59;4994629;28;24424;-78
2022/07/03 03:51:16;;;;;;;2.60;1.35;;;;;;;14.17;100.00;96139.78;4994663;28;24827;-79
2022/07/03 03:53:43;;;;;;;1.73;0.98;;;;;;;14.17;100.00;96140.59;4993771;28;24492;-78
2022/07/03 03:56:11;;;;;;;2.25;1.20;;;;;;;14.10;100.00;96144.56;4998426;28;25017;-79
2022/07/03 03:58:39;;;;;;;2.72;1.40;;;;;;;13.99;100.00;96144.50;4993956;28;24444;-79
2022/07/03 04:01:08;;;;;;;3.47;1.10;;;;;;;13.93;100.00;96152.72;4995099;28;24432;-79
2022/07/03 04:03:35;;;;;;;2.10;1.20;;;;;;;13.79;100.00;96157.16;4994459;28;24803;-78
2022/07/03 04:06:03;;;;;;;4.07;1.20;;;;;;;13.79;100.00;96156.28;4994191;28;25189;-79
2022/07/03 04:08:30;;;;;;;1.67;1.40;;;;;;;13.71;100.00;96156.00;4996286;28;24467;-79
2022/07/03 04:10:57;;;;;;;2.05;1.30;;;;;;;13.80;100.00;96152.78;4995917;28;24452;-79
2022/07/03 04:13:24;;;;;;;1.40;1.15;;;;;;;13.70;100.00;96154.34;4986652;28;24437;-79
2022/07/03 04:15:52;;;;;;;1.38;0.95;;;;;;;13.69;100.00;96155.28;4990927;28;24517;-79
2022/07/03 04:18:19;;;;;;;6.70;1.27;;;;;;;13.75;100.00;96163.47;4994281;28;24433;-79
2022/07/03 04:20:45;;;;;;;1.95;1.20;;;;;;;13.83;100.00;96160.38;4993808;28;24896;-79
2022/07/03 04:23:13;;;;;;;2.10;1.20;;;;;;;13.84;100.00;96169.00;4988229;28;24448;-79
2022/07/03 04:25:40;;;;;;;1.30;1.02;;;;;;;13.86;100.00;96170.56;4979032;28;24512;-79
2022/07/03 04:28:06;;;;;;;2.65;1.20;;;;;;;13.92;100.00;96171.91;4994866;28;24431;-79
2022/07/03 04:30:33;;;;;;;1.20;1.10;;;;;;;14.04;100.00;96173.66;4994461;28;24432;-79
2022/07/03 04:32:59;;;;;;;3.60;1.70;;;;;;;14.29;100.00;96178.78;4991073;28;24470;-79
2022/07/03 04:35:26;;;;;;;3.15;1.30;;;;;;;14.49;100.00;96168.72;4992406;28;24441;-79
2022/07/03 04:37:52;;;;;;;2.80;1.60;;;;;;;14.45;100.00;96165.50;4987455;28;24429;-78
2022/07/03 04:40:20;;;;;;;2.55;1.27;;;;;;;14.48;100.00;96167.88;4993219;28;24467;-79
2022/07/03 04:42:46;;;;;;;2.15;1.30;;;;;;;14.36;100.00;96173.16;4993950;28;24441;-79
2022/07/03 04:45:13;;;;;;;1.10;1.00;;;;;;;14.30;100.00;96171.81;4992387;28;24819;-79
2022/07/03 04:47:39;;;;;;;2.28;1.60;;;;;;;14.44;100.00;96176.03;4988960;28;24452;-79
2022/07/03 04:50:07;;;;;;;2.57;1.53;;;;;;;14.55;100.00;96175.31;4986456;28;25051;-78
2022/07/03 04:52:33;;;;;;;1.60;1.30;;;;;;;14.64;100.00;96172.84;4992056;28;24448;-78
2022/07/03 04:55:00;;;;;;;1.40;1.30;;;;;;;14.83;100.00;96169.75;4989065;28;24444;-78
2022/07/03 04:57:28;;;;;;;1.80;1.52;;;;;;;15.05;100.00;96178.59;4991401;28;24811;-78
2022/07/03 04:59:54;;;;;;;2.00;1.55;;;;;;;15.06;100.00;96167.22;4994303;28;24528;-79
2022/07/03 05:02:21;;;;;;;1.90;1.42;;;;;;;15.10;100.00;96168.66;4998705;28;24965;-78
2022/07/03 05:04:47;;;;;;;1.85;1.33;;;;;;;15.21;100.00;96173.91;4993752;28;24436;-78
2022/07/03 05:07:14;;;;;;;2.40;1.40;;;;;;;15.36;100.00;96171.91;4988814;28;24448;-78
2022/07/03 05:09:40;;;;;;;2.08;1.30;;;;;;;15.47;100.00;96171.94;4987695;28;24444;-78
2022/07/03 05:12:07;;;;;;;1.67;1.25;;;;;;;15.52;100.00;96167.19;4993418;28;24444;-78
2022/07/03 05:14:37;;;;;;;1.73;1.20;;;;;;;15.60;100.00;96167.44;4992093;28;21291;-78
2022/07/03 05:17:04;;;;;;;3.22;1.27;;;;;;;15.61;100.00;96168.25;4993528;28;24432;-78
2022/07/03 05:19:30;;;;;;;5.60;1.33;;;;;;;15.70;100.00;96170.22;4993041;28;24495;-78
2022/07/03 05:21:56;;;;;;;2.20;1.23;;;;;;;15.69;100.00;96179.81;4995771;28;24452;-77
2022/07/03 05:24:23;;;;;;;2.05;1.10;;;;;;;15.77;100.00;96170.56;4991471;28;24436;-78
2022/07/03 05:26:50;;;;;;;2.47;1.15;;;;;;;15.76;100.00;96171.50;4990251;28;25046;-78
2022/07/03 05:29:16;;;;;;;2.03;1.30;;;;;;;15.81;100.00;96167.59;4991882;28;24996;-78
2022/07/03 05:31:44;;;;;;;2.90;1.10;;;;;;;15.95;100.00;96164.75;4985287;28;24452;-78
2022/07/03 05:34:11;;;;;;;1.30;1.00;;;;;;;16.17;100.00;96170.91;4991958;28;24470;-78
2022/07/03 05:36:37;;;;;;;2.00;1.50;;;;;;;16.22;100.00;96166.16;4990544;28;24444;-78
2022/07/03 05:41:48;;;;;;;1.80;1.07;;;;;;;16.26;100.00;96171.97;4987345;28;24513;-78
2022/07/03 05:44:14;;;;;;;1.45;1.15;;;;;;;16.34;100.00;96172.19;4994015;28;24997;-78
2022/07/03 05:46:40;;;;;;;2.38;1.27;;;;;;;16.44;100.00;96170.50;4992380;28;24843;-78
2022/07/03 05:49:08;;;;;;;4.10;1.10;;;;;;;16.45;100.00;96170.38;4990516;28;24449;-78
2022/07/03 05:51:35;;;;;;;13.00;1.20;;;;;;;16.52;100.00;96162.03;4993763;28;24795;-78
2022/07/03 05:54:01;;;;;;;2.58;1.23;;;;;;;16.76;100.00;96167.09;4993475;28;24791;-78
2022/07/03 05:56:28;;;;;;;1.92;0.98;;;;;;;16.78;100.00;96165.19;4990953;28;24456;-78
2022/07/03 05:58:54;;;;;;;4.38;1.10;;;;;;;17.08;100.00;96159.25;4986936;28;24433;-78
2022/07/03 06:01:23;;;;;;;1.93;1.03;;;;;;;17.40;100.00;96165.25;4999888;28;24515;-78
2022/07/03 06:03:49;;;;;;;2.50;1.00;;;;;;;17.55;100.00;96164.91;4978207;28;24437;-78
2022/07/03 06:06:17;;;;;;;2.47;1.25;;;;;;;17.78;100.00;96155.13;4999886;28;24464;-77
2022/07/03 06:08:48;;;;;;;2.17;1.20;;;;;;;18.04;100.00;96164.19;4993872;28;24520;-77
2022/07/03 06:11:16;;;;;;;2.63;1.17;;;;;;;18.13;96.66;96162.56;5000601;28;24511;-78
2022/07/03 06:13:49;;;;;;;1.85;1.02;;;;;;;18.01;97.23;96168.88;5001931;28;24974;-78
2022/07/03 06:16:24;;;;;;;1.20;0.87;;;;;;;18.03;97.44;96159.09;5002576;28;24524;-78
2022/07/03 06:18:56;;;;;;;1.75;1.17;;;;;;;17.97;98.25;96164.88;5001568;28;24516;-77
2022/07/03 06:21:29;;;;;;;2.75;1.30;;;;;;;18.02;97.63;96167.91;5004030;28;24451;-78
2022/07/03 06:24:02;;;;;;;2.80;1.17;;;;;;;17.94;99.82;96168.56;5003979;28;24448;-77
2022/07/03 06:26:31;;;;;;;1.40;1.20;;;;;;;18.19;97.92;96167.28;4997656;28;24453;-78
2022/07/03 06:28:58;;;;;;;1.58;1.20;;;;;;;18.38;96.46;96177.81;5000828;28;24448;-77
2022/07/03 06:31:24;;;;;;;1.05;0.95;;;;;;;18.45;97.23;96174.66;5031503;23;24479;-76
2022/07/03 06:33:51;;;;;;;1.50;0.88;;;;;;;18.53;96.93;96166.94;5009286;28;24439;-76
2022/07/03 06:36:17;;;;;;;1.52;1.10;;;;;;;18.69;95.02;96175.13;5013066;28;24436;-75
2022/07/03 06:38:45;;;;;;;2.67;1.35;;;;;;;18.80;94.18;96175.03;5009290;28;24447;-75
2022/07/03 06:41:12;;;;;;;2.58;1.17;;;;;;;19.04;95.03;96174.63;5011916;28;24444;-75
2022/07/03 06:43:39;;;;;;;2.17;1.10;;;;;;;19.33;90.88;96185.09;5013027;28;24463;-75
2022/07/03 06:46:06;;;;;;;2.40;1.30;;;;;;;19.44;89.90;96172.78;5012243;28;24456;-75
2022/07/03 06:48:32;;;;;;;1.00;0.90;;;;;;;19.53;89.26;96175.38;5026015;28;24431;-75
2022/07/03 06:50:59;;;;;;;4.32;1.02;;;;;;;19.89;88.56;96167.72;5011960;28;24535;-74
2022/07/03 06:53:25;;;;;;;1.00;0.80;;;;;;;20.51;87.68;96175.91;5014183;28;24432;-76
2022/07/03 06:55:53;;;;;;;1.65;0.98;;;;;;;20.82;82.14;96172.94;5019329;28;24436;-76
2022/07/03 06:58:19;;;;;;;2.60;1.10;;;;;;;21.21;79.08;96171.66;5012415;28;24437;-75
2022/07/03 07:00:46;;;;;;;1.30;0.93;;;;;;;21.55;78.54;96170.13;5012848;28;24444;-75
2022/07/03 07:03:12;;;;;;;1.20;1.00;;;;;;;21.80;75.06;96177.16;5014326;28;24443;-75
2022/07/03 07:05:39;;;;;;;2.20;1.10;;;;;;;21.86;74.16;96173.09;5020013;28;25000;-75
2022/07/03 07:08:05;;;;;;;1.05;0.85;;;;;;;22.14;72.94;96174.59;5012553;28;24436;-75
2022/07/03 07:10:32;;;;;;;2.33;0.87;;;;;;;22.22;72.15;96171.16;5012414;28;24475;-75
2022/07/03 07:12:59;;;;;;;2.90;0.95;;;;;;;22.46;70.14;96180.97;5012629;28;24448;-75
2022/07/03 07:15:26;;;;;;;3.50;1.23;;;;;;;22.62;69.40;96180.19;5012222;28;24432;-75
2022/07/03 07:17:52;;;;;;;3.70;0.87;;;;;;;22.59;70.05;96176.09;5011343;28;24451;-75
2022/07/03 07:20:19;;;;;;;1.38;0.85;;;;;;;22.61;69.72;96184.66;5012415;28;24655;-75
2022/07/03 07:22:45;;;;;;;1.20;0.80;;;;;;;22.99;69.68;96176.34;5012226;28;24439;-75
2022/07/03 07:25:11;;;;;;;3.28;1.10;;;;;;;23.36;66.61;96182.00;5012525;28;24822;-75
2022/07/03 07:27:38;;;;;;;0.75;0.70;;;;;;;23.45;65.70;96177.53;5012535;28;24456;-75
2022/07/03 07:30:07;;;;;;;1.23;0.82;;;;;;;23.29;66.00;96180.19;5016785;28;24486;-75
2022/07/03 07:32:34;;;;;;;1.55;0.90;;;;;;;23.65;64.40;96184.09;5012077;28;24798;-75
2022/07/03 07:35:00;;;;;;;0.70;0.70;;;;;;;23.97;64.68;96186.91;5017284;28;25001;-75
2022/07/03 07:37:27;;;;;;;0.93;0.80;;;;;;;23.91;60.89;96183.91;5010925;28;25052;-75
2022/07/03 07:39:53;;;;;;;1.23;0.80;;;;;;;24.00;61.11;96184.75;5012722;28;24444;-75
2022/07/03 07:42:20;;;;;;;1.30;0.90;;;;;;;24.35;59.36;96183.44;5003600;28;24449;-75
2022/07/03 07:44:46;;;;;;;2.80;0.90;;;;;;;24.47;59.47;96167.22;5012119;28;24850;-75
2022/07/03 07:47:14;;;;;;;1.50;1.10;;;;;;;24.70;58.68;96168.09;5011494;28;24460;-75
2022/07/03 07:49:40;;;;;;;0.95;0.77;;;;;;;25.00;55.28;96176.19;5010014;28;24432;-76
2022/07/03 07:52:07;;;;;;;1.67;0.70;;;;;;;24.98;58.70;96167.59;5011690;28;24443;-75
2022/07/03 07:54:34;;;;;;;1.50;0.80;;;;;;;25.19;55.75;96167.00;5011735;28;24463;-75
2022/07/03 07:57:00;;;;;;;1.02;0.70;;;;;;;25.55;54.50;96162.69;5011649;28;24435;-75
2022/07/03 07:59:27;;;;;;;1.88;0.75;;;;;;;25.76;53.71;96161.97;5009097;28;24494;-75
2022/07/03 08:07:23;;;;;;;1.87;0.90;;;;;;;25.99;50.56;96161.13;5012676;28;24814;-75
2022/07/03 08:09:52;;;;;;;3.03;0.75;;;;;;;26.10;50.92;96158.00;5006238;28;24448;-74
2022/07/03 08:12:18;;;;;;;1.08;0.70;;;;;;;26.24;49.48;96156.34;5003946;28;24441;-74
2022/07/03 08:14:45;;;;;;;1.15;0.63;;;;;;;26.13;48.68;96159.47;5000320;28;24445;-74
2022/07/03 08:17:11;;;;;;;1.70;0.65;;;;;;;26.15;47.10;96160.94;5011635;28;24483;-74
2022/07/03 08:19:40;;;;;;;4.53;0.80;;;;;;;26.29;46.79;96162.78;5014397;28;25004;-74
2022/07/03 08:22:06;;;;;;;3.63;0.82;;;;;;;26.36;43.45;96157.53;5008504;28;24448;-74
2022/07/03 08:24:33;;;;;;;1.38;0.60;;;;;;;26.61;42.46;96157.25;5010242;28;24490;-75
2022/07/03 08:26:59;;;;;;;1.88;0.75;;;;;;;26.40;42.31;96153.50;5010775;28;24507;-75
2022/07/03 08:29:27;;;;;;;1.00;0.50;;;;;;;26.44;44.57;96157.44;4996840;28;24806;-75
2022/07/03 08:31:54;;;;;;;0.65;0.50;;;;;;;26.59;42.53;96157.44;5011102;28;24450;-74
2022/07/03 08:34:20;;;;;;;0.80;0.60;;;;;;;26.45;42.09;96160.91;5010814;28;24436;-74
2022/07/03 08:36:48;;;;;;;0.90;0.50;;;;;;;26.64;41.17;96149.72;5010429;28;24432;-74
2022/07/03 08:39:14;;;;;;;1.08;0.50;;;;;;;26.74;41.86;96147.59;5014466;28;24495;-74
2022/07/03 08:41:42;;;;;;;0.63;0.50;;;;;;;26.95;40.64;96149.44;5007758;28;24448;-74
2022/07/03 08:44:09;;;;;;;2.13;0.60;;;;;;;26.82;42.37;96149.31;5007743;28;24515;-74
2022/07/03 08:46:36;;;;;;;0.68;0.40;;;;;;;26.97;42.22;96157.25;5006807;28;24444;-75
2022/07/03 08:49:03;;;;;;;1.05;0.60;;;;;;;27.12;42.10;96143.91;5010244;28;24443;-74
2022/07/03 08:51:30;;;;;;;1.17;0.63;;;;;;;27.25;40.88;96144.88;5009362;28;24992;-74
2022/07/03 08:54:00;;;;;;;0.60;0.45;;;;;;;27.23;40.29;96152.19;5010802;28;24433;-75
2022/07/03 08:56:27;;;;;;;0.70;0.45;;;;;;;27.35;39.61;96147.19;5010437;28;25198;-74
2022/07/03 08:58:55;;;;;;;1.80;0.60;;;;;;;27.49;39.28;96146.28;5013169;28;24428;-77
2022/07/03 09:01:22;;;;;;;1.20;0.70;;;;;;;27.12;41.27;96143.91;5009505;28;24440;-74
2022/07/03 09:03:49;;;;;;;1.55;0.60;;;;;;;27.64;39.21;96148.84;5010046;28;24468;-75
2022/07/03 09:06:16;;;;;;;0.80;0.50;;;;;;;27.49;41.46;96153.44;5007802;28;24433;-74
2022/07/03 09:08:43;;;;;;;2.45;0.60;;;;;;;27.13;39.18;96157.00;5015265;28;24432;-69
2022/07/03 09:11:11;;;;;;;1.13;0.60;;;;;;;26.65;38.84;96147.91;5011460;28;24798;-74
2022/07/03 09:13:38;;;;;;;1.00;0.60;;;;;;;26.76;40.78;96139.44;5015113;28;24443;-74
2022/07/03 09:16:05;;;;;;;0.63;0.40;;;;;;;27.20;40.13;96146.44;5009869;28;24433;-74
2022/07/03 09:18:39;;;;;;;0.80;0.50;;;;;;;27.27;38.52;96145.47;5005903;28;24440;-73
2022/07/03 09:21:08;;;;;;;1.17;0.53;;;;;;;27.47;38.42;96147.47;5009780;28;24526;-73
2022/07/03 09:23:37;;;;;;;4.50;0.50;;;;;;;27.58;38.11;96138.16;5009062;28;24445;-73
2022/07/03 09:26:04;;;;;;;2.10;0.60;;;;;;;27.47;36.98;96144.81;5009892;28;24528;-73
2022/07/03 09:28:53;;;;;;;1.67;0.40;;;;;;;27.81;37.17;96145.91;5009052;28;24449;-73
2022/07/03 09:31:21;;;;;;;6.90;0.57;;;;;;;28.16;36.35;96133.44;5008396;28;25005;-73
2022/07/03 09:33:59;;;;;;;1.00;0.50;;;;;;;28.32;37.06;96142.94;5015848;28;24535;-72
2022/07/03 09:36:40;;;;;;;1.33;0.70;;;;;;;27.86;35.20;96135.53;5011543;28;24443;-73
2022/07/03 09:39:22;;;;;;;1.50;0.80;;;;;;;28.10;37.03;96136.88;5009246;28;24444;-72
2022/07/03 09:41:53;;;;;;;1.27;0.45;;;;;;;28.37;37.17;96133.38;5007681;28;24448;-72
2022/07/03 09:44:31;;;;;;;4.15;0.57;;;;;;;28.66;36.66;96137.56;5006278;28;25069;-72
2022/07/03 09:47:15;;;;;;;1.13;0.60;;;;;;;28.61;34.77;96124.00;5004850;28;24459;-73
2022/07/03 09:49:54;;;;;;;1.80;0.60;;;;;;;28.58;35.90;96120.94;5010399;28;24436;-72
2022/07/03 09:52:34;;;;;;;1.15;0.75;;;;;;;28.69;36.75;96129.16;5012431;28;24452;-73
2022/07/03 09:55:12;;;;;;;1.23;0.47;;;;;;;28.86;37.16;96129.63;5002666;28;24448;-74
2022/07/03 09:57:40;;;;;;;1.00;0.50;;;;;;;28.93;34.04;96122.47;5004156;28;24436;-74
2022/07/03 10:00:13;;;;;;;0.68;0.35;;;;;;;28.86;35.26;96128.81;5010229;28;24552;-74
2022/07/03 10:02:57;;;;;;;1.90;0.60;;;;;;;28.55;35.16;96124.81;5015423;28;24456;-73
2022/07/03 10:05:26;;;;;;;1.40;0.70;;;;;;;28.63;36.25;96119.31;5013080;28;24455;-73
2022/07/03 10:07:54;;;;;;;1.60;0.70;;;;;;;28.93;35.63;96121.63;5015692;28;24459;-74
2022/07/03 10:10:22;;;;;;;1.90;0.65;;;;;;;29.31;33.44;96121.91;5012879;28;25004;-72
2022/07/03 10:12:50;;;;;;;2.63;1.42;;;;;;;29.39;40.17;96119.03;5009574;28;24564;-73
2022/07/03 10:15:20;;;;;;;0.80;0.60;;;;;;;29.25;33.71;96122.72;5008022;28;24544;-73
2022/07/03 10:17:49;;;;;;;0.80;0.57;;;;;;;29.52;32.23;96112.88;5010141;28;25184;-73
2022/07/03 10:20:23;;;;;;;1.15;0.60;;;;;;;29.53;36.23;96111.03;5013002;28;24527;-73
2022/07/03 10:22:51;;;;;;;4.03;1.08;;;;;;;28.95;32.89;96116.91;5011317;28;24436;-74
2022/07/03 10:25:18;;;;;;;1.40;0.90;;;;;;;29.12;34.45;96115.53;5003515;28;24440;-73
2022/07/03 10:27:46;;;;;;;0.88;0.43;;;;;;;29.56;34.41;96107.94;5005378;28;24460;-74
2022/07/03 10:30:14;;;;;;;0.63;0.30;;;;;;;29.73;33.70;96111.03;5012447;28;24535;-74
2022/07/03 10:32:44;;;;;;;0.80;0.60;;;;;;;29.93;31.44;96103.81;5000479;28;24494;-73
2022/07/03 10:35:12;;;;;;;0.85;0.40;;;;;;;29.85;31.68;96104.84;5011021;28;24433;-73
2022/07/03 10:37:50;;;;;;;0.95;0.50;;;;;;;29.87;34.14;96104.63;5011980;28;25024;-73
2022/07/03 10:46:11;;;;;;;2.40;0.50;;;;;;;29.68;32.13;96103.66;5008344;28;24463;-74
2022/07/03 10:48:58;;;;;;;1.40;0.60;;;;;;;29.81;35.26;96097.44;5001971;28;25063;-74
2022/07/03 10:51:26;;;;;;;1.33;0.60;;;;;;;29.65;33.95;96099.53;4998940;28;24444;-73
2022/07/03 10:54:13;;;;;;;0.82;0.40;;;;;;;28.94;32.47;96094.75;5016045;28;25022;-74
2022/07/03 10:57:07;;;;;;;1.60;0.52;;;;;;;29.20;34.35;96095.03;5008833;28;24519;-72
2022/07/03 11:00:05;;;;;;;1.08;0.50;;;;;;;29.66;32.59;96089.66;5006979;28;24441;-73
2022/07/03 11:02:35;;;;;;;3.30;0.60;;;;;;;29.81;34.63;96092.94;5009771;28;25399;-73
2022/07/03 11:05:08;;;;;;;4.53;0.70;;;;;;;29.77;31.90;96096.22;5004763;28;24484;-73
2022/07/03 11:07:39;;;;;;;0.65;0.40;;;;;;;29.48;32.48;96084.13;5016894;28;24459;-72
2022/07/03 11:10:32;;;;;;;2.13;0.50;;;;;;;29.87;33.24;96083.28;5007206;28;25016;-73
2022/07/03 11:12:59;;;;;;;0.77;0.40;;;;;;;29.69;31.95;96081.25;5008967;28;24853;-72
2022/07/03 11:15:27;;;;;;;1.05;0.70;;;;;;;29.28;31.57;96084.16;5008853;28;24448;-72
2022/07/03 11:18:08;;;;;;;1.00;0.60;;;;;;;29.59;32.04;96088.84;5010905;28;24606;-73
2022/07/03 11:20:47;;;;;;;0.73;0.50;;;;;;;29.46;32.02;96080.84;5009826;28;24432;-72
2022/07/03 11:23:20;;;;;;;3.22;0.73;;;;;;;29.16;32.20;96079.44;5002510;28;24440;-73
2022/07/03 11:25:48;;;;;;;1.52;0.73;;;;;;;29.50;36.98;96076.75;5006714;28;24440;-73
2022/07/03 11:28:44;;;;;;;1.48;0.60;;;;;;;29.60;32.27;96075.31;5006896;28;24455;-73
2022/07/03 11:31:18;;;;;;;1.02;0.60;;;;;;;29.62;32.64;96081.25;5006949;28;25017;-72
2022/07/03 11:33:45;;;;;;;0.57;0.45;;;;;;;29.71;31.43;96075.72;5002795;28;24433;-73
2022/07/03 11:36:26;;;;;;;1.70;0.50;;;;;;;29.77;35.55;96070.34;5009601;28;24516;-73
2022/07/03 11:39:04;;;;;;;1.33;0.65;;;;;;;29.82;35.56;96061.72;5005277;28;25131;-73
2022/07/03 11:41:42;;;;;;;0.70;0.50;;;;;;;29.29;30.84;96067.91;5010398;28;24468;-73
2022/07/03 11:44:10;;;;;;;1.60;0.70;;;;;;;29.21;30.95;96065.47;5011456;28;24502;-72
2022/07/03 11:46:38;;;;;;;2.15;0.57;;;;;;;29.08;32.37;96063.63;5010615;28;24436;-73
2022/07/03 11:49:05;;;;;;;2.20;0.60;;;;;;;29.23;32.18;96057.28;5007812;28;24507;-73
2022/07/03 11:51:33;;;;;;;1.57;0.60;;;;;;;29.73;31.59;96057.63;5010788;28;24528;-73
2022/07/03 11:53:59;;;;;;;1.92;0.70;;;;;;;29.41;30.29;96057.47;5011607;28;24451;-74
2022/07/03 11:56:27;;;;;;;2.80;0.65;;;;;;;29.56;31.98;96055.38;5008414;28;24459;-74